createdAt,value
2022-08-07T00:00:03.530Z,97694.22
2022-08-07T00:05:42.638Z,97682.19
2022-08-07T00:11:06.457Z,97691.09
2022-08-07T00:16:28.089Z,97687.13
2022-08-07T00:21:56.635Z,97695.34
2022-08-07T00:27:23.121Z,97690.72
2022-08-07T00:32:49.363Z,97677.84
2022-08-07T00:38:10.437Z,97682.31
2022-08-07T00:43:59.858Z,97677.22
2022-08-07T00:49:24.971Z,97670.13
2022-08-07T00:54:55.748Z,97669.25
2022-08-07T01:00:29.059Z,97672.66
2022-08-07T01:05:56.054Z,97673.13
2022-08-07T01:12:09.387Z,97669.31
2022-08-07T01:17:00.221Z,97667.84
2022-08-07T01:22:29.133Z,97661.78
2022-08-07T01:27:52.720Z,97670.97
2022-08-07T01:33:15.707Z,97660.94
2022-08-07T01:38:39.322Z,97667.69
2022-08-07T01:44:12.325Z,97673.13
2022-08-07T01:49:36.622Z,97674.81
2022-08-07T01:55:00.347Z,97678.59
2022-08-07T02:00:32.054Z,97678.88
2022-08-07T02:06:00.811Z,97684.50
2022-08-07T02:11:30.777Z,97670.97
2022-08-07T02:17:26.503Z,97663.16
2022-08-07T02:22:54.898Z,97654.75
2022-08-07T02:28:25.571Z,97656.88
2022-08-07T02:34:01.937Z,97653.97
2022-08-07T02:39:43.979Z,97660.50
2022-08-07T02:45:59.145Z,97658.28
2022-08-07T02:51:01.536Z,97680.91
2022-08-07T02:56:24.285Z,97666.69
2022-08-07T03:01:52.310Z,97685.81
2022-08-07T03:07:18.333Z,97675.66
2022-08-07T03:13:01.575Z,97678.63
2022-08-07T03:18:36.047Z,97672.84
2022-08-07T03:24:18.201Z,97668.91
2022-08-07T03:29:49.657Z,97664.34
2022-08-07T03:35:26.336Z,97667.94
2022-08-07T03:40:57.153Z,97669.25
2022-08-07T03:46:19.146Z,97662.91
2022-08-07T03:51:47.493Z,97664.84
2022-08-07T03:59:05.689Z,97671.06
2022-08-07T04:02:56.735Z,97664.91
2022-08-07T04:08:24.171Z,97666.03
2022-08-07T04:14:09.215Z,97675.97
2022-08-07T04:19:50.915Z,97671.94
2022-08-07T04:25:12.733Z,97678.50
2022-08-07T04:30:55.591Z,97675.66
2022-08-07T04:36:26.047Z,97676.94
2022-08-07T04:41:50.391Z,97666.59
2022-08-07T04:48:01.308Z,97663.41
2022-08-07T04:54:05.207Z,97668.84
2022-08-07T05:00:09.976Z,97677.56
2022-08-07T05:05:52.042Z,97682.97
2022-08-07T05:11:57.604Z,97684.97
2022-08-07T05:17:16.153Z,97682.88
2022-08-07T05:23:01.912Z,97682.25
2022-08-07T05:28:26.782Z,97694.31
2022-08-07T05:34:04.348Z,97693.09
2022-08-07T05:40:13.567Z,97690.78
2022-08-07T05:45:25.794Z,97693.75
2022-08-07T05:50:51.331Z,97701.56
2022-08-07T05:56:18.234Z,97698.69
2022-08-07T06:01:45.280Z,97692.97
2022-08-07T06:07:07.757Z,97687.16
2022-08-07T06:12:33.353Z,97691.72
2022-08-07T06:17:56.122Z,97690.50
2022-08-07T06:23:46.198Z,97688.88
2022-08-07T06:29:01.228Z,97680.88
2022-08-07T06:34:29.543Z,97681.78
2022-08-07T06:40:17.323Z,97683.72
2022-08-07T06:45:35.731Z,97690.19
2022-08-07T06:51:00.291Z,97690.19
2022-08-07T06:56:49.703Z,97681.06
2022-08-07T07:02:48.453Z,97691.19
2022-08-07T07:08:06.727Z,97686.72
2022-08-07T07:13:57.583Z,97687.50
2022-08-07T07:19:55.406Z,97687.13
2022-08-07T07:26:31.382Z,97682.22
2022-08-07T07:31:08.091Z,97671.94
2022-08-07T07:36:32.883Z,97678.56
2022-08-07T07:42:12.871Z,97674.84
2022-08-07T07:47:51.865Z,97671.78
2022-08-07T07:53:20.594Z,97670.69
2022-08-07T07:58:44.588Z,97662.13
2022-08-07T08:04:11.646Z,97662.38
2022-08-07T08:09:52.419Z,97669.63
2022-08-07T08:15:15.738Z,97667.69
2022-08-07T08:20:39.129Z,97664.25
2022-08-07T08:26:27.134Z,97671.41
2022-08-07T08:31:59.242Z,97665.94
2022-08-07T08:38:00.813Z,97668.63
2022-08-07T08:43:32.040Z,97661.53
2022-08-07T08:49:13.121Z,97669.38
2022-08-07T08:54:45.173Z,97666.13
2022-08-07T09:00:09.277Z,97660.81
2022-08-07T09:05:59.008Z,97665.75
2022-08-07T09:11:43.715Z,97659.34
2022-08-07T09:17:33.986Z,97651.06
2022-08-07T09:24:31.727Z,97660.31
2022-08-07T09:30:06.370Z,97653.78
2022-08-07T09:36:04.927Z,97646.97
2022-08-07T09:41:59.055Z,97642.56
2022-08-07T09:48:01.321Z,97646.81
2022-08-07T09:53:41.266Z,97638.47
2022-08-07T10:00:00.298Z,97629.84
2022-08-07T10:05:59.662Z,97630.50
2022-08-07T10:12:02.327Z,97627.03
2022-08-07T10:18:01.261Z,97623.91
2022-08-07T10:24:06.893Z,97619.66
2022-08-07T10:30:07.482Z,97605.00
2022-08-07T10:35:55.939Z,97599.31
2022-08-07T10:41:51.350Z,97595.97
2022-08-07T10:47:51.618Z,97593.22
2022-08-07T10:53:27.855Z,97593.66
2022-08-07T10:59:30.371Z,97584.22
2022-08-07T11:04:59.582Z,97573.56
2022-08-07T11:10:27.461Z,97569.75
2022-08-07T11:15:54.734Z,97559.13
2022-08-07T11:21:24.645Z,97559.88
2022-08-07T11:27:16.641Z,97553.75
2022-08-07T11:33:01.942Z,97543.56
2022-08-07T11:38:54.092Z,97542.13
2022-08-07T11:44:28.808Z,97527.50
2022-08-07T11:50:31.653Z,97534.00
2022-08-07T11:56:27.306Z,97529.88
2022-08-07T12:02:20.649Z,97525.53
2022-08-07T12:08:04.770Z,97510.28
2022-08-07T12:13:45.533Z,97510.78
2022-08-07T12:19:21.388Z,97502.19
2022-08-07T12:26:00.263Z,97506.75
2022-08-07T12:31:03.837Z,97503.63
2022-08-07T12:36:32.773Z,97498.31
2022-08-07T12:41:55.078Z,97501.59
2022-08-07T12:47:50.197Z,97495.84
2022-08-07T12:53:22.396Z,97485.88
2022-08-07T12:58:53.184Z,97480.78
2022-08-07T13:04:19.110Z,97476.53
2022-08-07T13:10:39.856Z,97477.22
2022-08-07T13:16:50.722Z,97470.53
2022-08-07T13:22:37.769Z,97470.31
2022-08-07T13:28:13.672Z,97462.50
2022-08-07T13:34:31.338Z,97454.66
2022-08-07T13:40:33.831Z,97448.69
2022-08-07T13:46:21.010Z,97446.09
2022-08-07T13:51:27.482Z,97450.19
2022-08-07T13:56:52.122Z,97441.97
2022-08-07T14:02:29.787Z,97429.31
2022-08-07T14:08:01.037Z,97432.59
2022-08-07T14:13:33.405Z,97424.31
2022-08-07T14:18:56.954Z,97421.84
2022-08-07T14:24:33.248Z,97422.84
2022-08-07T14:30:05.217Z,97415.41
2022-08-07T14:35:44.996Z,97420.06
2022-08-07T14:41:12.414Z,97414.94
2022-08-07T14:46:37.773Z,97408.00
2022-08-07T14:52:13.397Z,97410.69
2022-08-07T14:57:58.286Z,97408.88
2022-08-07T15:03:53.004Z,97406.19
2022-08-07T15:09:59.718Z,97401.91
2022-08-07T15:14:58.130Z,97396.59
2022-08-07T15:20:32.822Z,97400.91
2022-08-07T15:25:59.495Z,97393.53
2022-08-07T15:32:01.623Z,97394.75
2022-08-07T15:37:08.255Z,97389.19
2022-08-07T15:42:48.318Z,97399.22
2022-08-07T15:48:12.646Z,97386.16
2022-08-07T15:53:52.019Z,97386.53
2022-08-07T15:59:20.320Z,97387.13
2022-08-07T16:05:04.383Z,97381.19
2022-08-07T16:10:37.775Z,97380.16
2022-08-07T16:16:47.791Z,97379.09
2022-08-07T16:22:33.408Z,97368.72
2022-08-07T16:28:14.187Z,97371.78
2022-08-07T16:34:01.891Z,97363.78
2022-08-07T16:39:48.653Z,97363.97
2022-08-07T16:46:21.157Z,97355.59
2022-08-07T16:51:57.664Z,97359.88
2022-08-07T16:58:00.725Z,97357.81
2022-08-07T17:03:17.426Z,97355.69
2022-08-07T17:09:10.807Z,97356.47
2022-08-07T17:14:37.612Z,97367.94
2022-08-07T17:20:14.422Z,97366.94
2022-08-07T17:26:22.577Z,97357.16
2022-08-07T17:32:30.309Z,97363.00
2022-08-07T17:38:36.525Z,97365.16
2022-08-07T17:44:05.756Z,97362.44
2022-08-07T17:49:45.370Z,97367.47
2022-08-07T17:55:59.968Z,97364.22
2022-08-07T18:01:18.227Z,97365.84
2022-08-07T18:07:19.095Z,97368.06
2022-08-07T18:12:34.708Z,97371.56
2022-08-07T18:18:46.956Z,97375.16
2022-08-07T18:23:57.206Z,97377.78
2022-08-07T18:30:05.572Z,97387.66
2022-08-07T18:35:51.579Z,97393.44
2022-08-07T18:41:45.163Z,97389.41
2022-08-07T18:47:44.480Z,97394.06
2022-08-07T18:53:16.592Z,97393.75
2022-08-07T18:58:55.883Z,97393.22
2022-08-07T19:04:30.932Z,97401.63
2022-08-07T19:10:18.419Z,97412.22
2022-08-07T19:17:01.107Z,97419.31
2022-08-07T19:22:04.411Z,97422.38
2022-08-07T19:28:30.745Z,97428.47
2022-08-07T19:33:16.045Z,97429.88
2022-08-07T19:38:52.866Z,97430.38
2022-08-07T19:44:21.813Z,97431.00
2022-08-07T19:49:56.676Z,97434.38
2022-08-07T19:55:25.536Z,97431.34
2022-08-07T20:01:09.564Z,97430.69
2022-08-07T20:06:31.111Z,97432.72
2022-08-07T20:12:22.150Z,97441.59
2022-08-07T20:17:38.534Z,97442.19
2022-08-07T20:23:10.797Z,97432.81
2022-08-07T20:28:44.642Z,97430.16
2022-08-07T20:34:10.022Z,97443.50
2022-08-07T20:40:02.634Z,97445.03
2022-08-07T20:45:32.680Z,97447.22
2022-08-07T20:51:04.501Z,97446.13
2022-08-07T20:56:32.489Z,97446.47
2022-08-07T21:01:58.313Z,97447.13
2022-08-07T21:07:23.444Z,97450.81
2022-08-07T21:12:47.264Z,97465.59
2022-08-07T21:18:33.506Z,97460.66
2022-08-07T21:24:16.370Z,97460.72
2022-08-07T21:29:37.467Z,97466.72
2022-08-07T21:35:08.114Z,97457.13
2022-08-07T21:40:42.996Z,97464.91
2022-08-07T21:46:25.309Z,97461.97
2022-08-07T21:52:16.680Z,97466.78
2022-08-07T21:58:30.104Z,97471.16
2022-08-07T22:04:02.723Z,97473.81
2022-08-07T22:09:38.103Z,97480.00
2022-08-07T22:16:44.358Z,97465.75
2022-08-07T22:21:16.819Z,97460.50
2022-08-07T22:26:49.661Z,97463.53
2022-08-07T22:32:20.418Z,97468.97
2022-08-07T22:38:05.385Z,97472.81
2022-08-07T22:43:34.057Z,97478.09
2022-08-07T22:49:23.246Z,97478.28
2022-08-07T22:55:17.485Z,97484.25
2022-08-07T23:01:22.504Z,97477.50
2022-08-07T23:07:39.748Z,97478.19
2022-08-07T23:13:02.327Z,97486.88
2022-08-07T23:19:11.245Z,97482.38
2022-08-07T23:24:56.245Z,97486.53
2022-08-07T23:30:38.707Z,97482.50
2022-08-07T23:36:28.868Z,97484.09
2022-08-07T23:42:30.457Z,97486.03
2022-08-07T23:48:24.981Z,97478.28
2022-08-07T23:54:19.567Z,97486.59
